Time;durP1;ratioP1;P1;durP2;ratioP2;P2;SDS_P1;SDS_P2;PMS_P1;PMS_P2;Temp;Humidity;BMP_temperature;BMP_pressure;BME280_temperature;BME280_humidity;BME280_pressure;Samples;Min_cycle;Max_cycle;Signal;HPM_P1;HPM_P2
2022/09/09 00:02:23;;;;;;;8.02;6.55;;;;;;;22.26;100.00;100052.28;5110935;28;20023;-68
2022/09/09 00:05:04;;;;;;;9.48;6.85;;;;;;;22.20;100.00;100053.97;5110864;28;21229;-68
2022/09/09 00:07:35;;;;;;;9.63;7.20;;;;;;;22.14;100.00;100045.78;5110209;28;20138;-66
2022/09/09 00:10:27;;;;;;;9.55;7.35;;;;;;;22.09;100.00;100043.72;5109003;28;20031;-67
2022/09/09 00:13:03;;;;;;;9.60;8.20;;;;;;;22.04;100.00;100023.56;5110825;28;20364;-68
2022/09/09 00:15:49;;;;;;;15.73;8.05;;;;;;;22.05;100.00;100022.50;5110786;28;20505;-68
2022/09/09 00:18:17;;;;;;;12.75;8.05;;;;;;;22.07;100.00;100026.72;5108631;28;20142;-67
2022/09/09 00:21:03;;;;;;;10.25;8.13;;;;;;;21.96;100.00;100012.88;5110450;28;20398;-66
2022/09/09 00:23:32;;;;;;;10.05;7.47;;;;;;;22.03;100.00;100036.38;5109229;28;20034;-67
2022/09/09 00:26:08;;;;;;;9.85;7.63;;;;;;;22.00;100.00;100020.44;5109608;28;20046;-67
2022/09/09 00:28:48;;;;;;;11.90;8.00;;;;;;;21.99;100.00;100009.72;5110330;28;20032;-67
2022/09/09 00:31:20;;;;;;;10.57;7.68;;;;;;;21.96;100.00;100013.69;5110064;28;20440;-67
2022/09/09 00:33:46;;;;;;;10.13;7.20;;;;;;;21.95;100.00;100027.56;5109751;28;20027;-67
2022/09/09 00:36:15;;;;;;;11.80;7.65;;;;;;;22.06;100.00;100040.59;5110256;28;20080;-67
2022/09/09 00:38:47;;;;;;;11.63;7.95;;;;;;;22.02;100.00;100051.09;5108923;28;20031;-67
2022/09/09 00:41:18;;;;;;;8.82;7.53;;;;;;;21.98;100.00;100049.00;5108619;28;20114;-67
2022/09/09 00:43:56;;;;;;;10.15;8.02;;;;;;;21.93;100.00;100051.53;5109729;28;20549;-67
2022/09/09 00:46:22;;;;;;;12.73;8.70;;;;;;;21.88;100.00;100046.72;5109975;28;20024;-67
2022/09/09 00:48:50;;;;;;;8.45;7.45;;;;;;;21.78;100.00;100050.94;5109871;28;20042;-67
2022/09/09 00:51:26;;;;;;;13.05;8.65;;;;;;;21.63;100.00;100056.59;5110009;28;20474;-67
2022/09/09 00:54:30;;;;;;;12.43;8.55;;;;;;;21.60;100.00;100061.66;5109655;28;20761;-67
2022/09/09 00:57:14;;;;;;;11.40;9.05;;;;;;;21.53;100.00;100055.34;5107508;28;20501;-66
2022/09/09 00:59:50;;;;;;;13.83;9.37;;;;;;;21.49;100.00;100054.09;5109439;28;20062;-67
2022/09/09 01:02:29;;;;;;;13.05;9.10;;;;;;;21.45;100.00;100052.84;5089615;28;20383;-66
2022/09/09 01:05:01;;;;;;;11.98;8.95;;;;;;;21.38;100.00;100046.56;5089290;28;20050;-66
2022/09/09 01:07:27;;;;;;;12.32;8.82;;;;;;;21.41;100.00;100059.78;5099020;28;20047;-66
2022/09/09 01:10:04;;;;;;;11.70;8.82;;;;;;;21.42;100.00;100062.31;5105809;27;20378;-66
2022/09/09 01:12:41;;;;;;;9.88;8.10;;;;;;;21.56;100.00;100069.41;5109277;28;20031;-66
2022/09/09 01:15:24;;;;;;;10.25;7.38;;;;;;;21.52;100.00;100078.25;5110182;28;20036;-67
2022/09/09 01:18:10;;;;;;;7.88;6.18;;;;;;;21.34;100.00;100067.09;5108676;28;20016;-67
2022/09/09 01:20:56;;;;;;;8.30;6.18;;;;;;;21.37;100.00;100093.97;5109271;28;20063;-67
2022/09/09 01:23:38;;;;;;;11.18;6.25;;;;;;;21.34;100.00;100083.47;5089825;28;20559;-67
2022/09/09 01:26:50;;;;;;;7.25;5.68;;;;;;;21.23;100.00;100075.94;5089904;28;20390;-67
2022/09/09 01:29:18;;;;;;;7.63;5.97;;;;;;;21.19;100.00;100070.06;5087837;28;20032;-66
2022/09/09 01:31:54;;;;;;;6.40;5.72;;;;;;;21.18;100.00;100073.00;5089252;28;20577;-66
2022/09/09 01:34:21;;;;;;;8.45;5.78;;;;;;;21.12;100.00;100080.09;5088152;28;20032;-66
2022/09/09 01:37:00;;;;;;;6.68;5.53;;;;;;;21.08;100.00;100059.75;5089291;28;20069;-66
2022/09/09 01:39:26;;;;;;;9.63;6.45;;;;;;;21.08;100.00;100069.81;5088082;28;20024;-67
2022/09/09 01:41:54;;;;;;;6.25;5.65;;;;;;;21.10;100.00;100078.66;5107275;28;20031;-67
2022/09/09 01:44:19;;;;;;;6.50;5.80;;;;;;;20.99;100.00;100065.63;5110020;28;20135;-67
2022/09/09 01:46:45;;;;;;;10.40;5.75;;;;;;;20.93;100.00;100063.69;5110022;28;20039;-66
2022/09/09 01:49:10;;;;;;;7.03;5.80;;;;;;;20.94;100.00;100076.31;5108509;28;20072;-67
2022/09/09 01:51:38;;;;;;;7.40;6.28;;;;;;;20.95;100.00;100078.81;5109749;28;20039;-67
2022/09/09 01:54:04;;;;;;;7.45;5.97;;;;;;;20.91;100.00;100088.44;5110146;28;20470;-67
2022/09/09 01:56:36;;;;;;;7.18;6.43;;;;;;;20.88;100.00;100088.84;5109749;28;20095;-67
2022/09/09 01:59:20;;;;;;;7.32;6.25;;;;;;;20.84;100.00;100078.56;5109780;28;20034;-67
2022/09/09 02:02:17;;;;;;;7.05;6.03;;;;;;;20.86;100.00;100088.22;5109314;28;20494;-66
2022/09/09 02:04:49;;;;;;;7.55;5.90;;;;;;;20.79;100.00;100083.81;5109464;28;20020;-66
2022/09/09 02:07:42;;;;;;;6.72;5.97;;;;;;;20.73;100.00;100082.72;5109101;28;20043;-66
2022/09/09 02:10:29;;;;;;;7.70;5.90;;;;;;;20.73;100.00;100080.00;5107526;28;20028;-65
2022/09/09 02:13:13;;;;;;;7.80;5.70;;;;;;;20.71;100.00;100083.97;5088611;28;20030;-65
2022/09/09 02:16:00;;;;;;;6.45;5.30;;;;;;;20.71;100.00;100078.53;5089143;28;20035;-66
2022/09/09 02:18:32;;;;;;;6.25;5.60;;;;;;;20.65;100.00;100073.91;5090857;28;20067;-65
2022/09/09 02:20:59;;;;;;;7.63;5.72;;;;;;;20.63;100.00;100081.47;5092820;28;20047;-66
2022/09/09 02:23:25;;;;;;;6.65;5.93;;;;;;;20.64;100.00;100085.84;5093349;28;20027;-66
2022/09/09 02:25:53;;;;;;;6.82;6.13;;;;;;;20.58;100.00;100095.69;5093140;28;20024;-66
2022/09/09 02:28:23;;;;;;;6.05;5.55;;;;;;;20.54;100.00;100088.13;5091644;28;20027;-65
2022/09/09 02:30:54;;;;;;;6.65;5.95;;;;;;;20.54;100.00;100088.13;5092647;28;20040;-65
2022/09/09 02:33:24;;;;;;;6.65;5.78;;;;;;;20.49;100.00;100079.72;5105751;28;20046;-66
2022/09/09 02:35:51;;;;;;;6.70;5.82;;;;;;;20.51;100.00;100086.66;5112337;28;20095;-65
2022/09/09 02:38:17;;;;;;;5.68;5.13;;;;;;;20.48;100.00;100083.50;5112681;28;20133;-65
2022/09/09 02:40:43;;;;;;;7.72;5.70;;;;;;;20.45;100.00;100095.66;5109501;28;20367;-66
2022/09/09 02:43:08;;;;;;;6.13;5.57;;;;;;;20.57;100.00;100104.88;5109330;28;20026;-65
2022/09/09 02:45:51;;;;;;;6.25;5.65;;;;;;;20.50;100.00;100112.19;5112579;28;20028;-65
2022/09/09 02:48:45;;;;;;;5.60;5.10;;;;;;;20.45;100.00;100116.59;5112264;28;20016;-65
2022/09/09 02:51:32;;;;;;;6.20;5.50;;;;;;;20.35;100.00;100108.81;5110694;28;20039;-66
2022/09/09 02:53:59;;;;;;;7.68;6.10;;;;;;;20.32;100.00;100111.94;5110159;28;20507;-65
2022/09/09 02:56:29;;;;;;;6.63;5.53;;;;;;;20.27;100.00;100110.84;5111926;27;20134;-66
2022/09/09 02:58:55;;;;;;;6.63;5.75;;;;;;;20.26;100.00;100114.59;5112001;28;20504;-66
2022/09/09 03:01:21;;;;;;;6.18;5.57;;;;;;;20.19;100.00;100107.22;5108854;28;20022;-66
2022/09/09 03:03:46;;;;;;;7.93;5.72;;;;;;;20.24;100.00;100108.53;5108557;27;20039;-65
2022/09/09 03:06:12;;;;;;;7.60;5.25;;;;;;;20.25;100.00;100102.03;5107900;28;20047;-65
2022/09/09 03:08:38;;;;;;;6.72;5.35;;;;;;;20.24;100.00;100103.09;5111659;28;20120;-65
2022/09/09 03:11:03;;;;;;;6.22;5.18;;;;;;;20.30;100.00;100096.81;5112052;28;20027;-66
2022/09/09 03:13:29;;;;;;;7.30;4.80;;;;;;;20.30;100.00;100092.22;5110707;28;20035;-66
2022/09/09 03:15:55;;;;;;;6.78;4.75;;;;;;;20.29;100.00;100101.44;5111830;27;20054;-67
2022/09/09 03:18:20;;;;;;;6.07;5.25;;;;;;;20.25;100.00;100088.41;5111634;28;20039;-67
2022/09/09 03:20:48;;;;;;;8.15;5.80;;;;;;;20.23;100.00;100099.50;5111604;28;20020;-66
2022/09/09 03:23:14;;;;;;;5.40;4.75;;;;;;;20.14;100.00;100107.00;5105542;28;20023;-66
2022/09/09 03:25:46;;;;;;;5.57;5.07;;;;;;;20.08;100.00;100101.47;5111950;28;20036;-66
2022/09/09 03:28:12;;;;;;;6.38;4.80;;;;;;;20.06;100.00;100104.41;5111024;28;20031;-66
2022/09/09 03:30:37;;;;;;;5.82;4.95;;;;;;;20.00;100.00;100110.66;5107174;28;20046;-65
2022/09/09 03:33:03;;;;;;;6.32;5.45;;;;;;;19.94;100.00;100111.47;5109095;28;20034;-66
2022/09/09 03:35:29;;;;;;;5.90;5.28;;;;;;;19.89;100.00;100108.50;5112006;28;20024;-65
2022/09/09 03:37:55;;;;;;;7.22;5.53;;;;;;;19.85;100.00;100109.94;5095976;28;20036;-64
2022/09/09 03:40:21;;;;;;;7.05;5.20;;;;;;;19.82;100.00;100113.06;5091776;28;20443;-66
2022/09/09 03:42:47;;;;;;;5.45;4.95;;;;;;;19.79;100.00;100108.00;5091608;28;20111;-66
2022/09/09 03:45:13;;;;;;;7.13;5.82;;;;;;;19.76;100.00;100113.00;5091645;28;20433;-65
2022/09/09 03:47:38;;;;;;;6.28;5.30;;;;;;;19.70;100.00;100111.91;5107510;28;20020;-67
2022/09/09 03:50:08;;;;;;;6.25;5.15;;;;;;;19.73;100.00;100118.84;5091617;28;20024;-67
2022/09/09 03:52:38;;;;;;;5.95;5.15;;;;;;;19.73;100.00;100119.69;5090287;28;20055;-67
2022/09/09 03:55:05;;;;;;;6.00;4.80;;;;;;;19.71;100.00;100107.31;5091544;28;20020;-66
2022/09/09 03:57:31;;;;;;;5.65;4.85;;;;;;;19.73;100.00;100114.25;5089506;28;20089;-67
2022/09/09 03:59:57;;;;;;;5.25;4.75;;;;;;;19.71;100.00;100126.38;5100602;28;20035;-66
2022/09/09 04:02:23;;;;;;;7.00;5.10;;;;;;;19.68;100.00;100124.03;5110199;28;20114;-66
2022/09/09 04:04:48;;;;;;;4.90;4.50;;;;;;;19.65;100.00;100127.16;5110011;28;20106;-67
2022/09/09 04:07:14;;;;;;;8.40;4.85;;;;;;;19.60;100.00;100113.28;5111269;28;20408;-66
2022/09/09 04:09:39;;;;;;;7.22;4.88;;;;;;;19.58;100.00;100105.31;5110872;28;20469;-66
2022/09/09 04:12:06;;;;;;;7.47;4.95;;;;;;;19.59;100.00;100111.63;5111288;28;20390;-66
2022/09/09 04:14:32;;;;;;;5.22;4.53;;;;;;;19.59;100.00;100117.06;5110188;28;20039;-66
2022/09/09 04:16:59;;;;;;;6.22;5.00;;;;;;;19.58;100.00;100129.00;5109138;28;20031;-66
2022/09/09 04:19:25;;;;;;;6.97;4.38;;;;;;;19.58;100.00;100132.53;5107105;28;20089;-66
2022/09/09 04:21:51;;;;;;;6.35;4.90;;;;;;;19.50;100.00;100124.53;5090737;28;20360;-67
2022/09/09 04:24:17;;;;;;;5.72;5.18;;;;;;;19.58;100.00;100137.16;5109509;28;20753;-66
2022/09/09 04:26:43;;;;;;;7.80;5.80;;;;;;;19.50;100.00;100124.53;5110668;28;20080;-66
2022/09/09 04:29:08;;;;;;;5.50;5.00;;;;;;;19.50;100.00;100120.97;5109869;28;20031;-66
2022/09/09 04:31:34;;;;;;;5.25;4.75;;;;;;;19.52;100.00;100125.19;5110490;28;20030;-66
2022/09/09 04:34:04;;;;;;;8.40;4.63;;;;;;;19.54;100.00;100131.25;5108768;28;20467;-66
2022/09/09 04:36:31;;;;;;;10.45;5.20;;;;;;;19.59;100.00;100145.13;5108252;28;20031;-66
2022/09/09 04:38:57;;;;;;;10.63;6.28;;;;;;;19.52;100.00;100136.06;5109942;28;20035;-66
2022/09/09 04:41:23;;;;;;;9.18;5.80;;;;;;;19.46;100.00;100131.41;5106052;28;20027;-66
2022/09/09 04:43:49;;;;;;;7.97;5.93;;;;;;;19.39;100.00;100119.63;5108700;28;20028;-66
2022/09/09 04:46:17;;;;;;;8.52;5.00;;;;;;;19.48;100.00;100134.75;5110221;28;20096;-66
2022/09/09 04:48:42;;;;;;;7.18;5.55;;;;;;;19.53;100.00;100139.59;5110119;28;20050;-66
2022/09/09 04:51:11;;;;;;;7.60;4.95;;;;;;;19.38;100.00;100142.41;5106827;28;20020;-66
2022/09/09 04:53:37;;;;;;;6.88;5.50;;;;;;;19.38;100.00;100130.72;5110325;28;20026;-66
2022/09/09 04:56:05;;;;;;;6.97;4.97;;;;;;;19.30;100.00;100125.38;5106164;28;20023;-66
2022/09/09 04:58:30;;;;;;;5.80;4.20;;;;;;;19.29;100.00;100130.00;5108807;28;20054;-66
2022/09/09 05:01:09;;;;;;;8.25;4.53;;;;;;;19.30;100.00;100123.50;5109272;28;20028;-66
2022/09/09 05:03:35;;;;;;;6.28;4.88;;;;;;;19.36;100.00;100130.91;5102473;28;20051;-67
2022/09/09 05:06:09;;;;;;;8.27;4.35;;;;;;;19.27;100.00;100125.78;5110020;28;20123;-65
2022/09/09 05:08:39;;;;;;;6.32;4.63;;;;;;;19.22;100.00;100120.88;5108242;28;20284;-65
2022/09/09 05:11:20;;;;;;;7.95;5.03;;;;;;;19.36;100.00;100130.03;5106196;28;20066;-65
2022/09/09 05:13:46;;;;;;;6.88;4.75;;;;;;;19.39;100.00;100122.34;5107422;28;20024;-65
2022/09/09 05:16:13;;;;;;;5.13;4.38;;;;;;;19.26;100.00;100116.78;5109337;28;20513;-66
2022/09/09 05:18:39;;;;;;;6.18;5.05;;;;;;;19.13;100.00;100105.75;5110076;28;20042;-65
2022/09/09 05:21:06;;;;;;;5.18;4.70;;;;;;;19.25;100.00;100123.22;5108770;28;20023;-65
2022/09/09 05:23:33;;;;;;;4.95;4.38;;;;;;;19.31;100.00;100116.22;5096639;28;20032;-66
2022/09/09 05:25:59;;;;;;;8.23;4.95;;;;;;;19.29;100.00;100113.69;5089052;28;20493;-65
2022/09/09 05:28:26;;;;;;;6.97;4.78;;;;;;;19.35;100.00;100106.63;5092066;28;20081;-65
2022/09/09 05:31:00;;;;;;;5.85;5.25;;;;;;;19.30;100.00;100112.63;5101727;28;20131;-65
2022/09/09 05:33:26;;;;;;;6.22;5.60;;;;;;;19.35;100.00;100131.09;5102732;28;20039;-65
2022/09/09 05:35:56;;;;;;;9.27;5.63;;;;;;;19.42;100.00;100129.28;5099510;28;20031;-65
2022/09/09 05:38:24;;;;;;;7.93;5.78;;;;;;;19.59;100.00;100147.00;5105989;28;20671;-65
2022/09/09 05:40:49;;;;;;;6.55;5.30;;;;;;;19.50;100.00;100129.13;5108927;28;20377;-65
2022/09/09 05:43:15;;;;;;;6.30;5.22;;;;;;;19.48;100.00;100134.75;5097670;28;20123;-65
2022/09/09 05:45:41;;;;;;;6.03;5.43;;;;;;;19.50;100.00;100131.84;5107745;28;20380;-65
2022/09/09 05:48:07;;;;;;;6.50;5.90;;;;;;;19.50;100.00;100134.56;5108718;28;20038;-66
2022/09/09 05:50:33;;;;;;;6.63;6.03;;;;;;;19.49;100.00;100131.00;5108759;28;20938;-65
2022/09/09 05:52:58;;;;;;;6.95;6.15;;;;;;;19.47;100.00;100119.47;5107191;28;20102;-65
2022/09/09 05:55:25;;;;;;;5.78;5.28;;;;;;;19.46;100.00;100130.56;5108266;28;20034;-65
2022/09/09 05:57:51;;;;;;;7.15;6.45;;;;;;;19.47;100.00;100127.63;5105835;28;20687;-65
2022/09/09 06:00:17;;;;;;;6.78;5.80;;;;;;;19.54;100.00;100127.72;5093317;28;20506;-66
2022/09/09 06:02:43;;;;;;;7.05;5.80;;;;;;;19.57;100.00;100128.13;5105099;28;20546;-66
2022/09/09 06:05:10;;;;;;;6.65;5.43;;;;;;;19.67;100.00;100125.91;5099844;28;20034;-66
2022/09/09 06:07:37;;;;;;;5.38;4.88;;;;;;;19.76;100.00;100130.19;5099321;28;20518;-66
2022/09/09 06:10:02;;;;;;;5.13;4.65;;;;;;;19.89;100.00;100134.88;5102220;28;20159;-66
2022/09/09 06:12:28;;;;;;;5.82;5.10;;;;;;;19.97;100.00;100143.75;5106066;28;20043;-65
2022/09/09 06:14:53;;;;;;;5.38;4.82;;;;;;;19.93;100.00;100131.56;5106549;28;20044;-66
2022/09/09 06:17:19;;;;;;;6.60;4.43;;;;;;;19.92;100.00;100142.63;5107104;28;20072;-65
2022/09/09 06:19:44;;;;;;;6.55;4.47;;;;;;;20.11;100.00;100142.81;5106878;28;20096;-65
2022/09/09 06:22:12;;;;;;;7.57;4.10;;;;;;;20.15;100.00;100133.19;5107227;28;20026;-65
2022/09/09 06:24:37;;;;;;;6.22;3.70;;;;;;;20.27;100.00;100138.06;5106220;28;20039;-66
2022/09/09 06:27:03;;;;;;;7.45;3.60;;;;;;;20.37;100.00;100133.13;5105886;28;20119;-65
2022/09/09 06:29:29;;;;;;;5.35;4.18;;;;;;;20.50;100.00;100134.00;5094748;28;20032;-65
2022/09/09 06:31:54;;;;;;;3.40;3.10;;;;;;;20.77;98.99;100135.81;5103713;28;20080;-65
2022/09/09 06:34:20;;;;;;;3.50;3.20;;;;;;;20.92;99.80;100138.38;5106354;28;20020;-66
2022/09/09 06:36:46;;;;;;;5.35;3.65;;;;;;;21.17;96.38;100137.63;5107674;28;20039;-66
2022/09/09 06:39:11;;;;;;;3.35;3.05;;;;;;;21.53;92.87;100145.41;5100584;28;20024;-65
2022/09/09 06:41:38;;;;;;;2.70;2.50;;;;;;;21.66;94.22;100143.53;5107344;28;20076;-65
2022/09/09 06:44:03;;;;;;;4.10;2.60;;;;;;;21.91;91.69;100151.97;5107549;28;20391;-66
2022/09/09 06:46:32;;;;;;;3.53;2.45;;;;;;;22.33;84.69;100156.94;5095489;28;20019;-66
2022/09/09 06:48:59;;;;;;;3.40;2.63;;;;;;;22.42;83.96;100158.38;5106464;28;20039;-66
2022/09/09 06:51:36;;;;;;;3.17;2.38;;;;;;;22.49;84.01;100167.44;5106166;28;20038;-65
2022/09/09 06:54:03;;;;;;;3.13;1.63;;;;;;;22.50;83.32;100152.69;5105266;28;20080;-65
2022/09/09 06:56:36;;;;;;;2.85;2.22;;;;;;;22.87;80.30;100173.81;5095333;28;21345;-65
2022/09/09 06:59:04;;;;;;;1.90;1.70;;;;;;;22.89;80.33;100158.00;5105143;28;20034;-65
2022/09/09 07:01:32;;;;;;;2.88;1.80;;;;;;;23.21;78.35;100172.59;5105184;28;20100;-65
2022/09/09 07:03:59;;;;;;;2.22;1.60;;;;;;;23.38;78.62;100184.72;5107118;28;20054;-65
2022/09/09 07:06:27;;;;;;;1.40;1.30;;;;;;;23.46;75.57;100177.06;5103778;28;20502;-64
2022/09/09 07:08:58;;;;;;;1.80;1.70;;;;;;;23.68;73.61;100169.34;5106637;28;20039;-64
2022/09/09 07:11:30;;;;;;;3.33;1.33;;;;;;;23.69;75.32;100171.84;5107232;28;20087;-64
2022/09/09 07:13:58;;;;;;;1.40;1.15;;;;;;;23.82;75.10;100160.78;5104872;28;20043;-64
2022/09/09 07:16:24;;;;;;;3.47;1.60;;;;;;;23.92;74.01;100158.38;5091625;28;20080;-64
2022/09/09 07:18:50;;;;;;;1.52;1.42;;;;;;;24.10;72.03;100163.09;5110445;28;20421;-65
2022/09/09 07:21:17;;;;;;;1.70;1.33;;;;;;;24.20;72.89;100163.41;5110302;28;20446;-64
2022/09/09 07:23:43;;;;;;;1.80;1.20;;;;;;;24.64;67.28;100168.66;5108905;28;20104;-64
2022/09/09 07:26:19;;;;;;;4.38;1.20;;;;;;;24.78;65.45;100161.09;5110369;28;20385;-64
2022/09/09 07:28:45;;;;;;;1.58;1.33;;;;;;;24.89;64.90;100154.84;5108749;28;20023;-64
2022/09/09 07:31:22;;;;;;;1.38;1.10;;;;;;;24.84;66.78;100161.03;5109280;28;20478;-64
2022/09/09 07:33:48;;;;;;;1.75;0.95;;;;;;;24.99;67.25;100158.69;5108972;28;20046;-65
2022/09/09 07:36:15;;;;;;;2.58;1.13;;;;;;;25.29;65.94;100155.97;5109498;28;20102;-65
2022/09/09 07:38:43;;;;;;;2.63;1.27;;;;;;;25.51;63.68;100154.38;5110456;28;20048;-65
2022/09/09 07:41:13;;;;;;;2.47;1.50;;;;;;;25.64;63.55;100143.19;5109861;28;20743;-65
2022/09/09 07:43:40;;;;;;;1.88;1.48;;;;;;;25.89;61.00;100143.84;5110230;28;20038;-65
2022/09/09 07:46:10;;;;;;;1.60;1.10;;;;;;;25.96;62.14;100145.38;5100223;28;20032;-66
2022/09/09 07:48:36;;;;;;;2.08;1.10;;;;;;;26.14;60.66;100139.78;5110581;28;20130;-66
2022/09/09 07:51:11;;;;;;;1.27;1.08;;;;;;;26.28;60.56;100143.13;5110500;28;20865;-65
2022/09/09 07:53:38;;;;;;;4.38;1.10;;;;;;;26.59;58.71;100142.72;5110676;28;20047;-66
2022/09/09 07:56:12;;;;;;;2.28;0.80;;;;;;;26.79;59.88;100123.91;5100176;28;20067;-65
2022/09/09 07:58:39;;;;;;;1.58;1.15;;;;;;;27.98;53.97;100124.50;5108768;28;20110;-66
2022/09/09 08:01:11;;;;;;;2.63;0.90;;;;;;;28.26;53.77;100131.81;5110362;28;20047;-66
2022/09/09 08:03:37;;;;;;;1.85;1.00;;;;;;;29.23;50.01;100116.22;5110541;28;20393;-66
2022/09/09 08:06:08;;;;;;;3.42;1.00;;;;;;;29.45;49.24;100119.78;5098723;28;20035;-65
2022/09/09 08:08:35;;;;;;;1.85;0.93;;;;;;;31.08;44.98;100127.81;5110034;28;20753;-66
2022/09/09 08:11:11;;;;;;;3.55;0.80;;;;;;;31.81;43.68;100135.72;5110171;28;20027;-66
2022/09/09 08:13:37;;;;;;;2.10;0.82;;;;;;;33.04;40.13;100131.31;5109069;28;20026;-66
2022/09/09 08:16:09;;;;;;;0.85;0.80;;;;;;;34.24;37.79;100127.66;5108684;28;20023;-66
2022/09/09 08:18:35;;;;;;;3.00;0.60;;;;;;;35.04;36.32;100125.91;5108535;28;20068;-66
2022/09/09 08:21:14;;;;;;;0.70;0.70;;;;;;;36.10;34.39;100140.72;5109603;28;20038;-66
2022/09/09 08:23:41;;;;;;;0.88;0.60;;;;;;;36.56;33.47;100132.34;5107444;28;20028;-66
2022/09/09 08:26:13;;;;;;;0.93;0.60;;;;;;;37.29;32.69;100119.06;5101428;28;20035;-66
2022/09/09 08:28:39;;;;;;;1.77;0.75;;;;;;;37.68;31.88;100135.25;5108475;28;20097;-66
2022/09/09 08:31:10;;;;;;;3.25;0.80;;;;;;;38.19;30.75;100135.59;5109797;28;20118;-67
2022/09/09 08:33:38;;;;;;;1.38;0.80;;;;;;;38.79;30.27;100133.13;5106955;28;20089;-66
2022/09/09 08:36:04;;;;;;;1.95;0.98;;;;;;;39.88;27.90;100130.84;5109651;28;20092;-66
2022/09/09 08:38:29;;;;;;;0.68;0.68;;;;;;;39.89;27.97;100133.31;5109377;28;20513;-66
2022/09/09 08:41:00;;;;;;;3.95;0.95;;;;;;;40.38;26.96;100131.91;5109541;28;20031;-66
2022/09/09 08:43:28;;;;;;;0.65;0.50;;;;;;;40.50;26.91;100143.28;5097038;28;20042;-66
2022/09/09 08:46:23;;;;;;;0.65;0.50;;;;;;;40.93;26.16;100141.09;5094692;28;20035;-65
2022/09/09 08:48:56;;;;;;;3.45;0.85;;;;;;;40.57;26.71;100148.38;5084916;28;20035;-65
2022/09/09 08:51:27;;;;;;;3.60;0.68;;;;;;;41.59;24.95;100137.41;5107896;28;20028;-65
2022/09/09 08:53:57;;;;;;;1.55;0.80;;;;;;;40.76;25.99;100149.66;5094219;27;20079;-65
2022/09/09 08:56:25;;;;;;;0.90;0.60;;;;;;;41.41;25.44;100140.66;5108881;28;20058;-65
2022/09/09 08:58:57;;;;;;;1.65;0.50;;;;;;;41.52;24.97;100137.09;5108026;28;20055;-66
2022/09/09 09:01:40;;;;;;;1.85;0.60;;;;;;;41.90;24.45;100131.31;5109205;28;20081;-66
2022/09/09 09:04:21;;;;;;;0.70;0.60;;;;;;;41.66;24.36;100131.19;5093953;28;20494;-69
2022/09/09 09:07:12;;;;;;;3.20;0.68;;;;;;;42.13;23.76;100127.75;5109159;28;20382;-68
2022/09/09 09:09:46;;;;;;;1.25;0.60;;;;;;;42.27;24.13;100119.00;5100137;27;20027;-68
2022/09/09 09:12:24;;;;;;;1.48;0.60;;;;;;;40.97;25.62;100116.75;5106671;28;20031;-68
2022/09/09 09:14:50;;;;;;;0.90;0.60;;;;;;;40.39;26.04;100113.84;5095153;28;20035;-68
2022/09/09 09:17:19;;;;;;;0.90;0.52;;;;;;;39.67;26.61;100118.59;5106605;28;20416;-68
2022/09/09 09:19:47;;;;;;;1.90;0.63;;;;;;;39.07;26.74;100115.72;5108428;28;20036;-68
2022/09/09 09:22:32;;;;;;;0.68;0.47;;;;;;;37.23;29.56;100130.69;5108412;28;20459;-68
2022/09/09 09:25:21;;;;;;;1.65;0.65;;;;;;;35.76;31.35;100128.16;5096435;28;20051;-68
2022/09/09 09:28:17;;;;;;;0.90;0.70;;;;;;;34.55;33.04;100123.41;5107729;28;20030;-67
2022/09/09 09:31:06;;;;;;;1.92;0.55;;;;;;;33.22;35.28;100119.50;5093261;28;20043;-67
2022/09/09 09:33:41;;;;;;;1.20;0.60;;;;;;;32.86;36.03;100123.59;5096837;28;20069;-67
2022/09/09 09:36:08;;;;;;;0.80;0.47;;;;;;;32.10;37.07;100120.16;5105431;28;20035;-67
2022/09/09 09:38:35;;;;;;;0.47;0.40;;;;;;;31.29;38.97;100130.38;5108020;28;20135;-68
2022/09/09 09:41:01;;;;;;;0.85;0.50;;;;;;;30.67;39.92;100124.03;5107972;28;20059;-67
2022/09/09 09:43:32;;;;;;;0.95;0.57;;;;;;;30.07;41.54;100126.41;5098601;28;20062;-67
2022/09/09 09:45:58;;;;;;;0.88;0.60;;;;;;;29.45;42.90;100130.81;5095449;28;20399;-67
2022/09/09 09:48:26;;;;;;;0.65;0.60;;;;;;;29.07;43.70;100129.06;5106552;28;20102;-67
2022/09/09 09:50:53;;;;;;;0.50;0.43;;;;;;;28.82;43.90;100141.72;5107718;28;20020;-67
2022/09/09 09:53:28;;;;;;;1.95;0.80;;;;;;;28.36;45.31;100138.31;5099904;28;20024;-67
2022/09/09 09:55:58;;;;;;;2.60;0.70;;;;;;;28.15;46.48;100130.00;5089548;28;20032;-65
2022/09/09 09:58:26;;;;;;;0.52;0.45;;;;;;;27.98;47.11;100142.94;5107912;28;20012;-65
2022/09/09 10:00:53;;;;;;;0.70;0.60;;;;;;;27.83;47.97;100143.50;5107845;28;20100;-65
2022/09/09 10:03:29;;;;;;;2.88;0.90;;;;;;;27.82;47.78;100141.03;5107931;28;20027;-65
2022/09/09 10:05:56;;;;;;;2.58;0.77;;;;;;;27.82;47.61;100122.53;5096597;28;20497;-65
2022/09/09 10:08:22;;;;;;;1.67;0.60;;;;;;;28.02;47.67;100133.09;5107459;28;20039;-65
2022/09/09 10:10:55;;;;;;;3.55;0.70;;;;;;;28.14;47.48;100131.91;5107761;28;20562;-65
2022/09/09 10:13:39;;;;;;;1.90;0.50;;;;;;;28.30;46.83;100139.31;5105495;28;20134;-65
2022/09/09 10:16:41;;;;;;;2.22;0.50;;;;;;;28.43;46.60;100133.44;5105029;28;20023;-65
2022/09/09 10:19:13;;;;;;;1.13;0.65;;;;;;;28.43;45.73;100127.06;5107761;28;20023;-65
2022/09/09 10:22:03;;;;;;;0.50;0.50;;;;;;;28.53;46.66;100128.09;5107478;28;20450;-66
2022/09/09 10:24:53;;;;;;;1.42;0.70;;;;;;;28.81;44.08;100140.03;5086836;28;20024;-65
2022/09/09 10:27:18;;;;;;;1.17;0.85;;;;;;;28.67;44.91;100131.31;5096203;28;20069;-65
2022/09/09 10:30:08;;;;;;;3.60;0.90;;;;;;;28.66;44.59;100120.53;5107127;28;20063;-65
2022/09/09 10:32:55;;;;;;;2.50;0.60;;;;;;;28.82;43.51;100122.38;5092374;28;20107;-65
2022/09/09 10:35:30;;;;;;;1.08;0.60;;;;;;;28.70;44.08;100116.16;5107959;28;20074;-66
2022/09/09 10:38:02;;;;;;;1.15;0.60;;;;;;;28.64;45.11;100119.94;5100919;28;20103;-66
2022/09/09 10:40:56;;;;;;;1.50;0.70;;;;;;;28.59;45.37;100114.38;5094019;28;20024;-66
2022/09/09 10:43:52;;;;;;;2.72;0.80;;;;;;;28.61;45.52;100117.69;5103850;28;20020;-67
2022/09/09 10:46:36;;;;;;;1.10;0.60;;;;;;;28.71;44.71;100123.31;5100608;28;20031;-67
2022/09/09 10:49:20;;;;;;;;;;;;;;;28.64;44.98;100115.25;5109269;28;20666;-67
2022/09/09 10:52:05;;;;;;;3.83;0.65;;;;;;;28.58;44.03;100109.91;5111488;28;19915;-67
2022/09/09 10:54:30;;;;;;;1.45;0.55;;;;;;;28.51;43.29;100104.59;5095479;28;20144;-67
2022/09/09 10:57:10;;;;;;;0.80;0.60;;;;;;;28.39;44.19;100110.22;5101903;28;20045;-67
2022/09/09 10:59:48;;;;;;;1.55;0.80;;;;;;;28.29;44.52;100104.56;5098580;28;20074;-67
2022/09/09 11:02:25;;;;;;;0.70;0.60;;;;;;;28.30;44.93;100099.84;5109626;28;20035;-67
2022/09/09 11:05:18;;;;;;;2.17;0.70;;;;;;;28.43;43.64;100103.06;5105167;27;20486;-67
2022/09/09 11:07:52;;;;;;;0.77;0.60;;;;;;;28.48;44.12;100102.34;5097475;28;20035;-67
2022/09/09 11:10:18;;;;;;;1.58;0.70;;;;;;;28.46;44.77;100102.59;5110804;28;20049;-65
2022/09/09 11:12:48;;;;;;;0.90;0.68;;;;;;;28.62;43.92;100102.81;5111149;28;20023;-65
2022/09/09 11:15:23;;;;;;;0.75;0.60;;;;;;;28.46;44.09;100101.75;5105709;28;20020;-64
2022/09/09 11:18:04;;;;;;;1.80;0.50;;;;;;;28.34;44.08;100112.88;5110828;28;20110;-64
2022/09/09 11:20:29;;;;;;;1.73;0.90;;;;;;;28.37;43.00;100104.09;5092893;28;20161;-64
2022/09/09 11:23:13;;;;;;;0.95;0.60;;;;;;;28.19;43.56;100109.94;5110859;28;20430;-65
2022/09/09 11:25:51;;;;;;;3.28;0.60;;;;;;;28.17;43.07;100098.31;5104305;28;20704;-64
2022/09/09 11:28:27;;;;;;;1.52;0.68;;;;;;;28.16;43.04;100106.84;5110572;28;20046;-64
2022/09/09 11:31:32;;;;;;;0.50;0.50;;;;;;;28.32;42.24;100090.25;5110534;28;20079;-64
2022/09/09 11:34:14;;;;;;;;;;;;;;;28.16;42.79;100093.88;5064262;28;20588;-65
2022/09/09 11:36:55;;;;;;;3.42;0.55;;;;;;;28.21;41.85;100096.69;5095749;28;19918;-64
2022/09/09 11:39:30;;;;;;;0.88;0.60;;;;;;;28.14;42.54;100089.69;5110403;28;20619;-64
2022/09/09 11:42:13;;;;;;;1.45;0.63;;;;;;;28.10;42.56;100083.88;5108456;28;20031;-64